createdAt,value
2019-03-03T00:00:57.020Z,94532.06
2019-03-03T00:30:51.545Z,94548.18
2019-03-03T01:00:55.845Z,94556.66
2019-03-03T01:15:59.255Z,94552.23
2019-03-03T01:30:50.972Z,94548.05
2019-03-03T02:00:53.202Z,94565.95
2019-03-03T02:15:50.731Z,94559.93
2019-03-03T02:30:50.749Z,94555.20
2019-03-03T02:45:51.655Z,94569.52
2019-03-03T03:00:56.121Z,94577.36
2019-03-03T03:15:56.624Z,94575.05
2019-03-03T05:30:51.220Z,94588.38
2019-03-03T05:45:50.602Z,94611.34
2019-03-03T06:00:51.584Z,94624.38
2019-03-03T06:15:50.799Z,94634.80
2019-03-03T06:30:50.726Z,94639.75
2019-03-03T06:45:50.775Z,94655.41
2019-03-03T07:00:51.071Z,94668.98
2019-03-03T07:15:57.511Z,94667.91
2019-03-03T07:30:51.004Z,94684.89
2019-03-03T07:45:50.918Z,94685.92
2019-03-03T08:00:51.575Z,94690.56
2019-03-03T08:15:53.875Z,94694.19
2019-03-03T08:30:51.232Z,94704.55
2019-03-03T08:45:59.989Z,94716.28
2019-03-03T09:00:55.202Z,94722.23
2019-03-03T09:15:56.593Z,94724.17
2019-03-03T09:31:00.320Z,94726.32
2019-03-03T10:00:55.835Z,94725.09
2019-03-03T10:15:55.674Z,94719.16
2019-03-03T10:30:54.720Z,94707.25
2019-03-03T11:00:57.763Z,94694.55
2019-03-03T11:15:57.973Z,94696.54
2019-03-03T12:00:59.350Z,94681.84
2019-03-03T12:15:59.965Z,94679.54
2019-03-03T12:31:00.490Z,94678.22
2019-03-03T12:45:57.000Z,94668.45
2019-03-03T13:15:57.992Z,94662.75
2019-03-03T13:30:57.855Z,94654.82
2019-03-03T13:45:51.412Z,94637.59
2019-03-03T14:00:51.467Z,94633.89
2019-03-03T14:15:51.644Z,94631.72
2019-03-03T14:30:51.162Z,94627.89
2019-03-03T14:45:51.401Z,94623.09
2019-03-03T15:00:53.500Z,94616.47
2019-03-03T15:15:51.575Z,94614.61
2019-03-03T15:30:51.564Z,94627.92
2019-03-03T15:45:51.044Z,94632.63
2019-03-03T16:00:53.444Z,94630.42
2019-03-03T16:15:50.956Z,94640.77
2019-03-03T16:30:51.372Z,94635.10
2019-03-03T16:45:51.465Z,94643.87
2019-03-03T17:00:51.990Z,94646.54
2019-03-03T17:30:54.779Z,94649.47
2019-03-03T17:45:53.308Z,94651.60
2019-03-03T18:00:54.354Z,94646.38
2019-03-03T18:30:51.820Z,94651.11
2019-03-03T18:45:53.512Z,94638.88
2019-03-03T19:00:58.610Z,94644.95
2019-03-03T19:15:51.952Z,94641.33
2019-03-03T19:30:51.630Z,94640.55
2019-03-03T19:45:53.398Z,94644.72
2019-03-03T20:00:51.561Z,94643.43
2019-03-03T20:15:51.456Z,94638.47
2019-03-03T20:30:51.044Z,94633.50
2019-03-03T20:45:50.964Z,94633.52
2019-03-03T21:00:51.332Z,94628.30
2019-03-03T21:15:50.377Z,94619.67
2019-03-03T21:30:52.877Z,94614.99
2019-03-03T21:45:50.785Z,94610.04
2019-03-03T22:00:51.249Z,94600.66
2019-03-03T22:15:53.215Z,94598.83
2019-03-03T22:30:51.255Z,94597.77
2019-03-03T22:45:51.244Z,94588.91
2019-03-03T23:30:55.466Z,94577.70
2019-03-03T23:45:51.428Z,94573.53
